sensor_id;sensor_type;location;lat;lon;timestamp;P1;durP1;ratioP1;P2;durP2;ratioP2
45764;SDS011;31474;45.332;10.230;2022-11-15T00:00:26;33.45;;;18.42;;
45764;SDS011;31474;45.332;10.230;2022-11-15T00:02:52;27.13;;;16.80;;
45764;SDS011;31474;45.332;10.230;2022-11-15T00:05:18;34.83;;;19.05;;
45764;SDS011;31474;45.332;10.230;2022-11-15T00:07:43;32.05;;;18.85;;
45764;SDS011;31474;45.332;10.230;2022-11-15T00:10:09;29.60;;;18.40;;
45764;SDS011;31474;45.332;10.230;2022-11-15T00:12:35;29.83;;;17.65;;
45764;SDS011;31474;45.332;10.230;2022-11-15T00:15:00;31.55;;;18.17;;
45764;SDS011;31474;45.332;10.230;2022-11-15T00:17:26;36.67;;;18.83;;
45764;SDS011;31474;45.332;10.230;2022-11-15T00:19:52;34.42;;;18.90;;
45764;SDS011;31474;45.332;10.230;2022-11-15T00:22:17;28.58;;;17.15;;
45764;SDS011;31474;45.332;10.230;2022-11-15T00:24:43;28.35;;;17.83;;
45764;SDS011;31474;45.332;10.230;2022-11-15T00:27:09;28.13;;;18.13;;
45764;SDS011;31474;45.332;10.230;2022-11-15T00:29:34;30.80;;;17.83;;
45764;SDS011;31474;45.332;10.230;2022-11-15T00:32:02;33.28;;;19.13;;
45764;SDS011;31474;45.332;10.230;2022-11-15T00:34:28;30.77;;;17.58;;
45764;SDS011;31474;45.332;10.230;2022-11-15T00:36:53;29.35;;;17.23;;
45764;SDS011;31474;45.332;10.230;2022-11-15T00:39:19;37.95;;;19.60;;
45764;SDS011;31474;45.332;10.230;2022-11-15T00:41:44;30.77;;;18.02;;
45764;SDS011;31474;45.332;10.230;2022-11-15T00:44:10;31.80;;;18.65;;
45764;SDS011;31474;45.332;10.230;2022-11-15T00:46:36;29.05;;;18.52;;
45764;SDS011;31474;45.332;10.230;2022-11-15T00:49:01;31.05;;;18.63;;
45764;SDS011;31474;45.332;10.230;2022-11-15T00:51:27;32.95;;;19.10;;
45764;SDS011;31474;45.332;10.230;2022-11-15T00:53:53;29.30;;;18.73;;
45764;SDS011;31474;45.332;10.230;2022-11-15T00:56:19;29.30;;;17.98;;
45764;SDS011;31474;45.332;10.230;2022-11-15T00:58:44;29.05;;;18.30;;
45764;SDS011;31474;45.332;10.230;2022-11-15T01:01:11;29.10;;;17.55;;
45764;SDS011;31474;45.332;10.230;2022-11-15T01:03:39;29.80;;;19.52;;
45764;SDS011;31474;45.332;10.230;2022-11-15T01:06:05;27.50;;;16.98;;
45764;SDS011;31474;45.332;10.230;2022-11-15T01:08:32;29.20;;;18.25;;
45764;SDS011;31474;45.332;10.230;2022-11-15T01:11:05;31.55;;;18.17;;
45764;SDS011;31474;45.332;10.230;2022-11-15T01:13:33;30.63;;;17.45;;
45764;SDS011;31474;45.332;10.230;2022-11-15T01:16:10;27.10;;;17.13;;
45764;SDS011;31474;45.332;10.230;2022-11-15T01:18:38;28.88;;;17.58;;
45764;SDS011;31474;45.332;10.230;2022-11-15T01:21:06;28.00;;;17.08;;
45764;SDS011;31474;45.332;10.230;2022-11-15T01:23:33;37.13;;;20.02;;
45764;SDS011;31474;45.332;10.230;2022-11-15T01:26:03;32.80;;;17.63;;
45764;SDS011;31474;45.332;10.230;2022-11-15T01:28:31;33.40;;;18.67;;
45764;SDS011;31474;45.332;10.230;2022-11-15T01:30:59;35.97;;;19.55;;
45764;SDS011;31474;45.332;10.230;2022-11-15T01:33:26;32.45;;;18.75;;
45764;SDS011;31474;45.332;10.230;2022-11-15T01:35:52;29.60;;;18.20;;
45764;SDS011;31474;45.332;10.230;2022-11-15T01:38:17;35.10;;;17.92;;
45764;SDS011;31474;45.332;10.230;2022-11-15T01:40:43;28.23;;;17.50;;
45764;SDS011;31474;45.332;10.230;2022-11-15T01:43:28;24.67;;;15.73;;
45764;SDS011;31474;45.332;10.230;2022-11-15T01:45:59;24.42;;;14.80;;
45764;SDS011;31474;45.332;10.230;2022-11-15T01:48:45;27.65;;;15.48;;
45764;SDS011;31474;45.332;10.230;2022-11-15T01:51:12;24.08;;;14.90;;
45764;SDS011;31474;45.332;10.230;2022-11-15T01:53:41;25.80;;;14.88;;
45764;SDS011;31474;45.332;10.230;2022-11-15T01:56:11;24.63;;;14.20;;
45764;SDS011;31474;45.332;10.230;2022-11-15T01:58:40;25.35;;;15.45;;
45764;SDS011;31474;45.332;10.230;2022-11-15T02:01:07;23.90;;;14.55;;
45764;SDS011;31474;45.332;10.230;2022-11-15T02:03:35;23.90;;;13.07;;
45764;SDS011;31474;45.332;10.230;2022-11-15T02:06:10;22.08;;;12.93;;
45764;SDS011;31474;45.332;10.230;2022-11-15T02:08:36;25.38;;;13.73;;
45764;SDS011;31474;45.332;10.230;2022-11-15T02:11:04;24.75;;;14.10;;
45764;SDS011;31474;45.332;10.230;2022-11-15T02:13:32;26.90;;;14.18;;
45764;SDS011;31474;45.332;10.230;2022-11-15T02:16:00;23.65;;;13.88;;
45764;SDS011;31474;45.332;10.230;2022-11-15T02:18:41;22.98;;;14.45;;
45764;SDS011;31474;45.332;10.230;2022-11-15T02:21:26;21.20;;;13.55;;
45764;SDS011;31474;45.332;10.230;2022-11-15T02:24:21;19.85;;;12.60;;
45764;SDS011;31474;45.332;10.230;2022-11-15T02:32:48;20.23;;;13.10;;
45764;SDS011;31474;45.332;10.230;2022-11-15T02:37:58;20.77;;;12.90;;
45764;SDS011;31474;45.332;10.230;2022-11-15T02:43:16;19.80;;;12.38;;
45764;SDS011;31474;45.332;10.230;2022-11-15T02:46:09;19.08;;;12.32;;
45764;SDS011;31474;45.332;10.230;2022-11-15T02:49:20;20.30;;;11.60;;
45764;SDS011;31474;45.332;10.230;2022-11-15T02:51:48;19.58;;;11.98;;
45764;SDS011;31474;45.332;10.230;2022-11-15T02:54:22;16.55;;;11.80;;
45764;SDS011;31474;45.332;10.230;2022-11-15T02:56:51;22.17;;;12.35;;
45764;SDS011;31474;45.332;10.230;2022-11-15T03:02:22;22.48;;;12.02;;
45764;SDS011;31474;45.332;10.230;2022-11-15T03:10:19;24.65;;;13.13;;
45764;SDS011;31474;45.332;10.230;2022-11-15T03:12:53;24.02;;;12.85;;
45764;SDS011;31474;45.332;10.230;2022-11-15T03:15:32;24.58;;;12.95;;
45764;SDS011;31474;45.332;10.230;2022-11-15T03:20:42;21.92;;;13.32;;
45764;SDS011;31474;45.332;10.230;2022-11-15T03:23:09;22.70;;;12.57;;
45764;SDS011;31474;45.332;10.230;2022-11-15T03:25:44;23.60;;;12.80;;
45764;SDS011;31474;45.332;10.230;2022-11-15T03:28:16;20.52;;;11.93;;
45764;SDS011;31474;45.332;10.230;2022-11-15T03:30:47;18.55;;;11.35;;
45764;SDS011;31474;45.332;10.230;2022-11-15T03:33:15;20.00;;;11.70;;
45764;SDS011;31474;45.332;10.230;2022-11-15T03:35:42;20.92;;;11.48;;
45764;SDS011;31474;45.332;10.230;2022-11-15T03:38:19;21.77;;;13.15;;
45764;SDS011;31474;45.332;10.230;2022-11-15T03:40:51;21.77;;;12.32;;
45764;SDS011;31474;45.332;10.230;2022-11-15T03:46:25;23.02;;;13.57;;
45764;SDS011;31474;45.332;10.230;2022-11-15T03:51:38;28.30;;;13.23;;
45764;SDS011;31474;45.332;10.230;2022-11-15T03:54:05;19.55;;;12.38;;
45764;SDS011;31474;45.332;10.230;2022-11-15T03:56:31;28.42;;;13.88;;
45764;SDS011;31474;45.332;10.230;2022-11-15T03:58:56;20.25;;;12.43;;
45764;SDS011;31474;45.332;10.230;2022-11-15T04:01:22;22.23;;;12.95;;
45764;SDS011;31474;45.332;10.230;2022-11-15T04:03:48;20.77;;;13.30;;
45764;SDS011;31474;45.332;10.230;2022-11-15T04:06:13;22.17;;;12.00;;
45764;SDS011;31474;45.332;10.230;2022-11-15T04:08:39;21.10;;;11.63;;
45764;SDS011;31474;45.332;10.230;2022-11-15T04:11:05;23.40;;;12.23;;
45764;SDS011;31474;45.332;10.230;2022-11-15T04:13:30;16.70;;;11.85;;
45764;SDS011;31474;45.332;10.230;2022-11-15T04:15:56;17.02;;;11.60;;
45764;SDS011;31474;45.332;10.230;2022-11-15T04:18:22;21.05;;;12.02;;
45764;SDS011;31474;45.332;10.230;2022-11-15T04:20:49;19.52;;;11.55;;
45764;SDS011;31474;45.332;10.230;2022-11-15T04:23:33;17.40;;;10.70;;
45764;SDS011;31474;45.332;10.230;2022-11-15T04:26:18;16.98;;;10.30;;
45764;SDS011;31474;45.332;10.230;2022-11-15T04:28:45;19.52;;;11.68;;
45764;SDS011;31474;45.332;10.230;2022-11-15T04:31:30;15.88;;;10.80;;
45764;SDS011;31474;45.332;10.230;2022-11-15T04:33:55;19.27;;;12.10;;
45764;SDS011;31474;45.332;10.230;2022-11-15T04:36:22;16.52;;;11.73;;
45764;SDS011;31474;45.332;10.230;2022-11-15T04:39:14;19.13;;;11.52;;
45764;SDS011;31474;45.332;10.230;2022-11-15T04:41:39;18.17;;;12.10;;
45764;SDS011;31474;45.332;10.230;2022-11-15T04:44:05;20.73;;;11.48;;
45764;SDS011;31474;45.332;10.230;2022-11-15T04:46:31;19.20;;;10.90;;
45764;SDS011;31474;45.332;10.230;2022-11-15T04:48:56;18.35;;;12.35;;
45764;SDS011;31474;45.332;10.230;2022-11-15T04:51:22;26.13;;;12.95;;
45764;SDS011;31474;45.332;10.230;2022-11-15T04:53:48;23.08;;;12.77;;
45764;SDS011;31474;45.332;10.230;2022-11-15T04:56:13;19.42;;;11.75;;
45764;SDS011;31474;45.332;10.230;2022-11-15T04:58:39;23.48;;;12.77;;
45764;SDS011;31474;45.332;10.230;2022-11-15T05:01:11;21.52;;;11.65;;
45764;SDS011;31474;45.332;10.230;2022-11-15T05:03:41;20.58;;;11.88;;
45764;SDS011;31474;45.332;10.230;2022-11-15T05:06:26;22.52;;;12.60;;
45764;SDS011;31474;45.332;10.230;2022-11-15T05:08:51;18.10;;;12.18;;
45764;SDS011;31474;45.332;10.230;2022-11-15T05:11:17;22.63;;;11.82;;
45764;SDS011;31474;45.332;10.230;2022-11-15T05:13:43;17.05;;;10.65;;
45764;SDS011;31474;45.332;10.230;2022-11-15T05:16:09;15.32;;;10.75;;
45764;SDS011;31474;45.332;10.230;2022-11-15T05:18:34;14.50;;;10.02;;
45764;SDS011;31474;45.332;10.230;2022-11-15T05:21:04;19.10;;;11.70;;
45764;SDS011;31474;45.332;10.230;2022-11-15T05:23:34;17.73;;;11.48;;
45764;SDS011;31474;45.332;10.230;2022-11-15T05:26:00;18.85;;;12.07;;
45764;SDS011;31474;45.332;10.230;2022-11-15T05:28:27;15.80;;;10.88;;
45764;SDS011;31474;45.332;10.230;2022-11-15T05:30:53;18.00;;;11.73;;
45764;SDS011;31474;45.332;10.230;2022-11-15T05:33:24;18.70;;;10.55;;
45764;SDS011;31474;45.332;10.230;2022-11-15T05:35:50;20.48;;;11.15;;
45764;SDS011;31474;45.332;10.230;2022-11-15T05:38:23;16.60;;;10.18;;
45764;SDS011;31474;45.332;10.230;2022-11-15T05:40:48;15.38;;;10.85;;
45764;SDS011;31474;45.332;10.230;2022-11-15T05:43:14;18.83;;;11.50;;
45764;SDS011;31474;45.332;10.230;2022-11-15T05:45:40;16.02;;;10.43;;
45764;SDS011;31474;45.332;10.230;2022-11-15T05:48:06;17.27;;;11.32;;
45764;SDS011;31474;45.332;10.230;2022-11-15T05:50:35;19.92;;;11.77;;
45764;SDS011;31474;45.332;10.230;2022-11-15T05:53:03;15.57;;;11.05;;
45764;SDS011;31474;45.332;10.230;2022-11-15T05:55:30;16.77;;;11.13;;
45764;SDS011;31474;45.332;10.230;2022-11-15T05:57:56;18.30;;;11.27;;
45764;SDS011;31474;45.332;10.230;2022-11-15T06:00:22;16.17;;;10.48;;
45764;SDS011;31474;45.332;10.230;2022-11-15T06:02:48;16.50;;;10.18;;
45764;SDS011;31474;45.332;10.230;2022-11-15T06:05:13;18.50;;;10.85;;
45764;SDS011;31474;45.332;10.230;2022-11-15T06:07:39;17.48;;;10.40;;
45764;SDS011;31474;45.332;10.230;2022-11-15T06:10:05;16.55;;;11.73;;
45764;SDS011;31474;45.332;10.230;2022-11-15T06:12:31;17.52;;;11.20;;
45764;SDS011;31474;45.332;10.230;2022-11-15T06:14:56;15.85;;;10.95;;
45764;SDS011;31474;45.332;10.230;2022-11-15T06:17:22;16.67;;;10.82;;
45764;SDS011;31474;45.332;10.230;2022-11-15T06:19:48;19.15;;;10.82;;
45764;SDS011;31474;45.332;10.230;2022-11-15T06:22:13;19.08;;;11.25;;
45764;SDS011;31474;45.332;10.230;2022-11-15T06:24:39;17.80;;;10.52;;
45764;SDS011;31474;45.332;10.230;2022-11-15T06:27:04;17.88;;;11.43;;
45764;SDS011;31474;45.332;10.230;2022-11-15T06:29:30;16.00;;;10.88;;
45764;SDS011;31474;45.332;10.230;2022-11-15T06:31:56;17.73;;;11.48;;
45764;SDS011;31474;45.332;10.230;2022-11-15T06:34:21;18.33;;;11.20;;
45764;SDS011;31474;45.332;10.230;2022-11-15T06:36:47;19.50;;;11.20;;
45764;SDS011;31474;45.332;10.230;2022-11-15T06:39:12;20.17;;;11.02;;
45764;SDS011;31474;45.332;10.230;2022-11-15T06:41:38;15.90;;;10.43;;
45764;SDS011;31474;45.332;10.230;2022-11-15T06:44:04;21.40;;;11.98;;
45764;SDS011;31474;45.332;10.230;2022-11-15T06:46:29;17.75;;;11.32;;
45764;SDS011;31474;45.332;10.230;2022-11-15T06:48:55;14.65;;;10.95;;
45764;SDS011;31474;45.332;10.230;2022-11-15T06:51:21;18.58;;;11.13;;
45764;SDS011;31474;45.332;10.230;2022-11-15T06:53:46;16.42;;;10.43;;
45764;SDS011;31474;45.332;10.230;2022-11-15T06:56:12;17.08;;;11.20;;
45764;SDS011;31474;45.332;10.230;2022-11-15T06:58:37;18.35;;;12.13;;
45764;SDS011;31474;45.332;10.230;2022-11-15T07:01:07;19.15;;;12.40;;
45764;SDS011;31474;45.332;10.230;2022-11-15T07:03:39;20.65;;;12.18;;
45764;SDS011;31474;45.332;10.230;2022-11-15T07:06:06;22.35;;;15.27;;
45764;SDS011;31474;45.332;10.230;2022-11-15T07:08:32;26.83;;;15.95;;
45764;SDS011;31474;45.332;10.230;2022-11-15T07:11:02;22.25;;;13.35;;
45764;SDS011;31474;45.332;10.230;2022-11-15T07:13:32;15.57;;;10.70;;
45764;SDS011;31474;45.332;10.230;2022-11-15T07:15:58;16.42;;;11.25;;
45764;SDS011;31474;45.332;10.230;2022-11-15T07:18:27;18.45;;;11.18;;
45764;SDS011;31474;45.332;10.230;2022-11-15T07:20:54;19.17;;;11.93;;
45764;SDS011;31474;45.332;10.230;2022-11-15T07:23:20;19.38;;;13.30;;
45764;SDS011;31474;45.332;10.230;2022-11-15T07:25:46;20.48;;;13.48;;
45764;SDS011;31474;45.332;10.230;2022-11-15T07:28:11;17.05;;;12.77;;
45764;SDS011;31474;45.332;10.230;2022-11-15T07:30:37;16.92;;;12.27;;
45764;SDS011;31474;45.332;10.230;2022-11-15T07:33:03;27.98;;;20.65;;
45764;SDS011;31474;45.332;10.230;2022-11-15T07:35:29;28.73;;;22.20;;
45764;SDS011;31474;45.332;10.230;2022-11-15T07:40:25;20.77;;;13.40;;
45764;SDS011;31474;45.332;10.230;2022-11-15T07:42:52;23.02;;;14.90;;
45764;SDS011;31474;45.332;10.230;2022-11-15T07:45:17;21.33;;;13.10;;
45764;SDS011;31474;45.332;10.230;2022-11-15T07:47:47;16.95;;;11.45;;
45764;SDS011;31474;45.332;10.230;2022-11-15T07:50:13;18.48;;;12.88;;
45764;SDS011;31474;45.332;10.230;2022-11-15T07:52:38;17.67;;;11.85;;
45764;SDS011;31474;45.332;10.230;2022-11-15T07:55:04;16.10;;;11.10;;
45764;SDS011;31474;45.332;10.230;2022-11-15T07:57:30;21.65;;;12.13;;
45764;SDS011;31474;45.332;10.230;2022-11-15T07:59:56;16.30;;;11.60;;
45764;SDS011;31474;45.332;10.230;2022-11-15T08:02:22;20.63;;;12.70;;
45764;SDS011;31474;45.332;10.230;2022-11-15T08:04:47;18.80;;;12.18;;
45764;SDS011;31474;45.332;10.230;2022-11-15T08:07:13;18.02;;;11.98;;
45764;SDS011;31474;45.332;10.230;2022-11-15T08:09:38;18.30;;;12.73;;
45764;SDS011;31474;45.332;10.230;2022-11-15T08:12:04;22.77;;;13.88;;
45764;SDS011;31474;45.332;10.230;2022-11-15T08:14:30;21.70;;;13.15;;
45764;SDS011;31474;45.332;10.230;2022-11-15T08:16:56;20.90;;;14.45;;
45764;SDS011;31474;45.332;10.230;2022-11-15T08:19:21;25.65;;;14.88;;
45764;SDS011;31474;45.332;10.230;2022-11-15T08:21:47;22.35;;;15.20;;
45764;SDS011;31474;45.332;10.230;2022-11-15T08:24:13;23.45;;;15.02;;
45764;SDS011;31474;45.332;10.230;2022-11-15T08:26:39;19.88;;;15.07;;
45764;SDS011;31474;45.332;10.230;2022-11-15T08:29:05;24.33;;;15.18;;
45764;SDS011;31474;45.332;10.230;2022-11-15T08:31:33;21.58;;;14.15;;
45764;SDS011;31474;45.332;10.230;2022-11-15T08:34:01;21.90;;;14.93;;
45764;SDS011;31474;45.332;10.230;2022-11-15T08:36:27;23.55;;;15.98;;
45764;SDS011;31474;45.332;10.230;2022-11-15T08:38:53;22.85;;;15.20;;
45764;SDS011;31474;45.332;10.230;2022-11-15T08:41:23;27.52;;;15.40;;
45764;SDS011;31474;45.332;10.230;2022-11-15T08:43:58;24.58;;;15.32;;
45764;SDS011;31474;45.332;10.230;2022-11-15T08:46:24;21.92;;;15.45;;
45764;SDS011;31474;45.332;10.230;2022-11-15T08:48:50;23.90;;;14.98;;
45764;SDS011;31474;45.332;10.230;2022-11-15T08:51:15;20.95;;;15.43;;
45764;SDS011;31474;45.332;10.230;2022-11-15T08:53:41;22.30;;;14.60;;
45764;SDS011;31474;45.332;10.230;2022-11-15T08:56:07;24.35;;;14.80;;
45764;SDS011;31474;45.332;10.230;2022-11-15T08:58:34;22.48;;;15.10;;
45764;SDS011;31474;45.332;10.230;2022-11-15T09:01:00;26.73;;;15.27;;
45764;SDS011;31474;45.332;10.230;2022-11-15T09:03:26;24.15;;;14.60;;
45764;SDS011;31474;45.332;10.230;2022-11-15T09:05:58;20.45;;;13.75;;
45764;SDS011;31474;45.332;10.230;2022-11-15T09:08:28;26.33;;;16.33;;
45764;SDS011;31474;45.332;10.230;2022-11-15T09:10:55;25.77;;;15.38;;
45764;SDS011;31474;45.332;10.230;2022-11-15T09:13:21;27.92;;;17.40;;
45764;SDS011;31474;45.332;10.230;2022-11-15T09:15:47;26.42;;;15.60;;
45764;SDS011;31474;45.332;10.230;2022-11-15T09:18:12;22.35;;;14.55;;
45764;SDS011;31474;45.332;10.230;2022-11-15T09:20:38;21.98;;;14.27;;
45764;SDS011;31474;45.332;10.230;2022-11-15T09:23:04;23.10;;;14.90;;
45764;SDS011;31474;45.332;10.230;2022-11-15T09:25:30;21.42;;;14.13;;
45764;SDS011;31474;45.332;10.230;2022-11-15T09:27:56;21.42;;;13.52;;
45764;SDS011;31474;45.332;10.230;2022-11-15T09:30:23;24.42;;;15.65;;
45764;SDS011;31474;45.332;10.230;2022-11-15T09:32:50;21.83;;;15.32;;
45764;SDS011;31474;45.332;10.230;2022-11-15T09:35:15;22.73;;;14.68;;
45764;SDS011;31474;45.332;10.230;2022-11-15T09:37:41;20.45;;;13.68;;
45764;SDS011;31474;45.332;10.230;2022-11-15T09:40:11;24.02;;;14.20;;
45764;SDS011;31474;45.332;10.230;2022-11-15T09:48:11;20.30;;;13.60;;
45764;SDS011;31474;45.332;10.230;2022-11-15T09:50:48;26.27;;;16.55;;
45764;SDS011;31474;45.332;10.230;2022-11-15T09:56:05;23.83;;;16.17;;
45764;SDS011;31474;45.332;10.230;2022-11-15T10:04:21;21.88;;;13.27;;
45764;SDS011;31474;45.332;10.230;2022-11-15T10:06:53;19.77;;;13.40;;
45764;SDS011;31474;45.332;10.230;2022-11-15T10:09:48;21.70;;;15.07;;
45764;SDS011;31474;45.332;10.230;2022-11-15T10:12:18;21.90;;;14.82;;
45764;SDS011;31474;45.332;10.230;2022-11-15T10:14:45;20.73;;;14.38;;
45764;SDS011;31474;45.332;10.230;2022-11-15T10:22:26;21.45;;;14.60;;
45764;SDS011;31474;45.332;10.230;2022-11-15T10:25:00;26.30;;;15.10;;
45764;SDS011;31474;45.332;10.230;2022-11-15T10:27:32;23.30;;;14.80;;
45764;SDS011;31474;45.332;10.230;2022-11-15T10:29:58;21.17;;;13.68;;
45764;SDS011;31474;45.332;10.230;2022-11-15T10:32:24;24.00;;;14.68;;
45764;SDS011;31474;45.332;10.230;2022-11-15T10:34:50;21.73;;;15.13;;
45764;SDS011;31474;45.332;10.230;2022-11-15T10:37:29;22.48;;;15.18;;
45764;SDS011;31474;45.332;10.230;2022-11-15T10:40:06;22.30;;;14.40;;
45764;SDS011;31474;45.332;10.230;2022-11-15T10:42:43;21.48;;;15.40;;
45764;SDS011;31474;45.332;10.230;2022-11-15T10:45:23;23.27;;;15.65;;
45764;SDS011;31474;45.332;10.230;2022-11-15T10:47:55;27.48;;;17.75;;
45764;SDS011;31474;45.332;10.230;2022-11-15T10:53:48;23.65;;;17.75;;
45764;SDS011;31474;45.332;10.230;2022-11-15T10:56:00;23.00;;;17.13;;
45764;SDS011;31474;45.332;10.230;2022-11-15T11:03:37;27.02;;;18.80;;
45764;SDS011;31474;45.332;10.230;2022-11-15T11:08:52;32.47;;;17.80;;
45764;SDS011;31474;45.332;10.230;2022-11-15T11:23:24;27.67;;;18.48;;
45764;SDS011;31474;45.332;10.230;2022-11-15T11:33:59;30.83;;;19.25;;
45764;SDS011;31474;45.332;10.230;2022-11-15T11:52:08;19.65;;;14.50;;
45764;SDS011;31474;45.332;10.230;2022-11-15T12:00:38;19.83;;;13.85;;
45764;SDS011;31474;45.332;10.230;2022-11-15T12:05:48;19.30;;;13.95;;
45764;SDS011;31474;45.332;10.230;2022-11-15T12:11:14;21.17;;;14.45;;
45764;SDS011;31474;45.332;10.230;2022-11-15T12:14:01;21.55;;;14.63;;
45764;SDS011;31474;45.332;10.230;2022-11-15T12:16:31;24.90;;;15.73;;
45764;SDS011;31474;45.332;10.230;2022-11-15T12:19:01;21.95;;;14.60;;
45764;SDS011;31474;45.332;10.230;2022-11-15T12:21:33;20.98;;;14.77;;
45764;SDS011;31474;45.332;10.230;2022-11-15T12:24:17;33.10;;;20.25;;
45764;SDS011;31474;45.332;10.230;2022-11-15T12:26:52;26.65;;;18.05;;
45764;SDS011;31474;45.332;10.230;2022-11-15T12:29:29;29.10;;;18.58;;
45764;SDS011;31474;45.332;10.230;2022-11-15T12:32:04;29.55;;;18.52;;
45764;SDS011;31474;45.332;10.230;2022-11-15T12:34:43;32.50;;;20.52;;
45764;SDS011;31474;45.332;10.230;2022-11-15T12:40:18;24.50;;;17.02;;
45764;SDS011;31474;45.332;10.230;2022-11-15T12:45:31;26.15;;;17.52;;
45764;SDS011;31474;45.332;10.230;2022-11-15T13:09:56;27.92;;;20.38;;
45764;SDS011;31474;45.332;10.230;2022-11-15T13:14:51;32.22;;;21.55;;
45764;SDS011;31474;45.332;10.230;2022-11-15T13:19:53;32.00;;;21.25;;
45764;SDS011;31474;45.332;10.230;2022-11-15T13:23:18;29.88;;;21.88;;
45764;SDS011;31474;45.332;10.230;2022-11-15T13:30:39;29.52;;;19.50;;
45764;SDS011;31474;45.332;10.230;2022-11-15T13:33:32;43.50;;;24.20;;
45764;SDS011;31474;45.332;10.230;2022-11-15T13:38:42;25.48;;;17.13;;
45764;SDS011;31474;45.332;10.230;2022-11-15T13:41:28;23.55;;;16.73;;
45764;SDS011;31474;45.332;10.230;2022-11-15T13:43:56;25.70;;;16.60;;
45764;SDS011;31474;45.332;10.230;2022-11-15T13:46:24;26.13;;;17.02;;
45764;SDS011;31474;45.332;10.230;2022-11-15T13:48:53;22.60;;;15.77;;
45764;SDS011;31474;45.332;10.230;2022-11-15T13:51:26;26.27;;;16.38;;
45764;SDS011;31474;45.332;10.230;2022-11-15T13:56:54;37.50;;;20.02;;
45764;SDS011;31474;45.332;10.230;2022-11-15T13:59:47;29.63;;;16.45;;
45764;SDS011;31474;45.332;10.230;2022-11-15T14:02:15;27.50;;;17.30;;
45764;SDS011;31474;45.332;10.230;2022-11-15T14:04:53;36.10;;;20.48;;
45764;SDS011;31474;45.332;10.230;2022-11-15T14:07:28;36.78;;;19.10;;
45764;SDS011;31474;45.332;10.230;2022-11-15T14:09:54;28.60;;;16.38;;
45764;SDS011;31474;45.332;10.230;2022-11-15T14:12:32;21.48;;;14.18;;
45764;SDS011;31474;45.332;10.230;2022-11-15T14:15:00;26.17;;;17.23;;
45764;SDS011;31474;45.332;10.230;2022-11-15T14:17:44;48.60;;;25.02;;
45764;SDS011;31474;45.332;10.230;2022-11-15T14:23:18;41.95;;;24.23;;
45764;SDS011;31474;45.332;10.230;2022-11-15T14:25:52;26.42;;;18.55;;
45764;SDS011;31474;45.332;10.230;2022-11-15T14:30:50;32.58;;;22.27;;
45764;SDS011;31474;45.332;10.230;2022-11-15T14:35:49;29.48;;;19.77;;
45764;SDS011;31474;45.332;10.230;2022-11-15T14:38:16;27.08;;;18.10;;
45764;SDS011;31474;45.332;10.230;2022-11-15T14:40:42;29.02;;;18.08;;
45764;SDS011;31474;45.332;10.230;2022-11-15T14:43:11;34.10;;;21.58;;
45764;SDS011;31474;45.332;10.230;2022-11-15T14:45:38;31.33;;;19.73;;
45764;SDS011;31474;45.332;10.230;2022-11-15T14:48:04;36.65;;;20.63;;
45764;SDS011;31474;45.332;10.230;2022-11-15T14:50:30;25.85;;;17.13;;
45764;SDS011;31474;45.332;10.230;2022-11-15T14:52:57;25.40;;;16.25;;
45764;SDS011;31474;45.332;10.230;2022-11-15T14:55:25;24.65;;;15.63;;
45764;SDS011;31474;45.332;10.230;2022-11-15T14:57:53;24.20;;;15.95;;
45764;SDS011;31474;45.332;10.230;2022-11-15T15:00:20;21.90;;;15.20;;
45764;SDS011;31474;45.332;10.230;2022-11-15T15:02:46;20.77;;;13.65;;
45764;SDS011;31474;45.332;10.230;2022-11-15T15:05:14;24.27;;;13.88;;
45764;SDS011;31474;45.332;10.230;2022-11-15T15:07:41;19.88;;;13.77;;
45764;SDS011;31474;45.332;10.230;2022-11-15T15:10:08;19.65;;;13.68;;
45764;SDS011;31474;45.332;10.230;2022-11-15T15:12:34;21.15;;;15.27;;
45764;SDS011;31474;45.332;10.230;2022-11-15T15:15:00;26.70;;;16.45;;
45764;SDS011;31474;45.332;10.230;2022-11-15T15:17:25;29.52;;;17.70;;
45764;SDS011;31474;45.332;10.230;2022-11-15T15:19:51;21.30;;;15.43;;
45764;SDS011;31474;45.332;10.230;2022-11-15T15:22:17;22.05;;;15.07;;
45764;SDS011;31474;45.332;10.230;2022-11-15T15:24:45;61.22;;;26.38;;
45764;SDS011;31474;45.332;10.230;2022-11-15T15:27:11;89.57;;;36.35;;
45764;SDS011;31474;45.332;10.230;2022-11-15T15:29:37;101.55;;;38.72;;
45764;SDS011;31474;45.332;10.230;2022-11-15T15:32:04;100.07;;;40.08;;
45764;SDS011;31474;45.332;10.230;2022-11-15T15:34:30;43.78;;;22.40;;
45764;SDS011;31474;45.332;10.230;2022-11-15T15:39:47;23.02;;;16.25;;
45764;SDS011;31474;45.332;10.230;2022-11-15T15:42:14;27.98;;;17.05;;
45764;SDS011;31474;45.332;10.230;2022-11-15T15:44:40;22.88;;;15.90;;
45764;SDS011;31474;45.332;10.230;2022-11-15T15:47:18;24.73;;;15.75;;
45764;SDS011;31474;45.332;10.230;2022-11-15T15:49:46;25.75;;;18.92;;
45764;SDS011;31474;45.332;10.230;2022-11-15T15:52:12;37.33;;;29.50;;
45764;SDS011;31474;45.332;10.230;2022-11-15T15:54:38;30.33;;;22.92;;
45764;SDS011;31474;45.332;10.230;2022-11-15T15:57:05;27.38;;;18.70;;
45764;SDS011;31474;45.332;10.230;2022-11-15T15:59:31;24.73;;;18.48;;
45764;SDS011;31474;45.332;10.230;2022-11-15T16:01:57;20.52;;;16.65;;
45764;SDS011;31474;45.332;10.230;2022-11-15T16:04:23;21.88;;;15.85;;
45764;SDS011;31474;45.332;10.230;2022-11-15T16:06:49;24.67;;;18.42;;
45764;SDS011;31474;45.332;10.230;2022-11-15T16:09:17;23.00;;;16.20;;
45764;SDS011;31474;45.332;10.230;2022-11-15T16:12:04;20.02;;;13.70;;
45764;SDS011;31474;45.332;10.230;2022-11-15T16:14:30;23.02;;;13.77;;
45764;SDS011;31474;45.332;10.230;2022-11-15T16:16:56;21.33;;;14.70;;
45764;SDS011;31474;45.332;10.230;2022-11-15T16:19:22;18.40;;;14.35;;
45764;SDS011;31474;45.332;10.230;2022-11-15T16:21:48;19.48;;;14.57;;
45764;SDS011;31474;45.332;10.230;2022-11-15T16:24:14;22.48;;;15.60;;
45764;SDS011;31474;45.332;10.230;2022-11-15T16:26:39;29.45;;;21.13;;
45764;SDS011;31474;45.332;10.230;2022-11-15T16:29:05;34.95;;;24.98;;
45764;SDS011;31474;45.332;10.230;2022-11-15T16:31:31;34.55;;;24.15;;
45764;SDS011;31474;45.332;10.230;2022-11-15T16:33:57;25.95;;;19.73;;
45764;SDS011;31474;45.332;10.230;2022-11-15T16:36:24;34.05;;;21.90;;
45764;SDS011;31474;45.332;10.230;2022-11-15T16:38:51;49.72;;;31.40;;
45764;SDS011;31474;45.332;10.230;2022-11-15T16:41:17;43.50;;;28.23;;
45764;SDS011;31474;45.332;10.230;2022-11-15T16:43:44;30.98;;;21.98;;
45764;SDS011;31474;45.332;10.230;2022-11-15T16:46:29;30.13;;;21.90;;
45764;SDS011;31474;45.332;10.230;2022-11-15T16:48:54;31.60;;;22.13;;
45764;SDS011;31474;45.332;10.230;2022-11-15T16:51:21;28.60;;;20.00;;
45764;SDS011;31474;45.332;10.230;2022-11-15T16:53:47;28.73;;;20.75;;
45764;SDS011;31474;45.332;10.230;2022-11-15T16:56:17;27.55;;;21.58;;
45764;SDS011;31474;45.332;10.230;2022-11-15T16:58:43;33.58;;;21.50;;
45764;SDS011;31474;45.332;10.230;2022-11-15T17:01:14;26.23;;;20.33;;